Time;durP1;ratioP1;P1;durP2;ratioP2;P2;SDS_P1;SDS_P2;PMS_P1;PMS_P2;Temp;Humidity;BMP_temperature;BMP_pressure;BME280_temperature;BME280_humidity;BME280_pressure;Samples;Min_cycle;Max_cycle;Signal;HPM_P1;HPM_P2
2022/05/10 00:02:16;;;;;;;29.35;13.30;;;;;;;8.84;46.63;100303.89;1813788;79;21072;-42
2022/05/10 00:04:48;;;;;;;25.95;12.60;;;;;;;8.80;46.87;100308.36;1814028;79;21553;-42
2022/05/10 00:07:15;;;;;;;26.25;13.00;;;;;;;8.78;46.76;100303.03;1814041;79;21284;-43
2022/05/10 00:09:42;;;;;;;26.27;11.95;;;;;;;8.75;46.63;100299.08;1815777;79;21526;-42
2022/05/10 00:12:11;;;;;;;24.35;12.78;;;;;;;8.72;46.81;100298.36;1816042;79;20980;-42
2022/05/10 00:14:38;;;;;;;24.92;12.90;;;;;;;8.67;47.09;100302.03;1816047;79;21008;-42
2022/05/10 00:17:05;;;;;;;29.32;13.03;;;;;;;8.62;47.07;100297.36;1815964;79;21550;-42
2022/05/10 00:19:32;;;;;;;26.52;13.25;;;;;;;8.60;46.93;100300.41;1815901;79;23134;-42
2022/05/10 00:21:59;;;;;;;25.25;13.03;;;;;;;8.58;47.11;100292.37;1815770;79;21028;-42
2022/05/10 00:24:26;;;;;;;22.73;12.37;;;;;;;8.55;47.53;100297.87;1815768;79;21012;-42
2022/05/10 00:26:54;;;;;;;25.15;13.25;;;;;;;8.51;47.68;100297.49;1815873;79;21072;-42
2022/05/10 00:29:23;;;;;;;30.32;12.75;;;;;;;8.46;47.51;100293.61;1816112;79;21083;-42
2022/05/10 00:31:50;;;;;;;25.55;12.28;;;;;;;8.43;47.60;100290.98;1816057;78;21958;-42
2022/05/10 00:34:17;;;;;;;25.68;13.10;;;;;;;8.39;47.74;100291.39;1816071;78;21008;-42
2022/05/10 00:36:46;;;;;;;25.90;13.43;;;;;;;8.36;47.83;100291.25;1816296;78;20957;-42
2022/05/10 00:39:12;;;;;;;25.05;11.95;;;;;;;8.31;47.65;100292.77;1816163;79;21099;-42
2022/05/10 00:42:09;;;;;;;26.75;12.10;;;;;;;8.27;47.71;100292.04;1816166;78;20982;-42
2022/05/10 00:44:49;;;;;;;21.20;11.68;;;;;;;8.24;47.79;100285.91;1815883;79;21976;-42
2022/05/10 00:47:37;;;;;;;20.27;10.72;;;;;;;8.20;47.76;100290.92;1815924;78;21530;-42
2022/05/10 00:50:24;;;;;;;20.72;10.93;;;;;;;8.16;47.76;100286.73;1815835;79;20992;-42
2022/05/10 00:53:06;;;;;;;21.50;11.22;;;;;;;8.13;47.68;100287.34;1815883;79;21542;-42
2022/05/10 00:55:50;;;;;;;26.17;10.65;;;;;;;8.11;47.57;100289.59;1816002;79;21594;-42
2022/05/10 00:58:48;;;;;;;23.00;11.22;;;;;;;8.09;47.45;100285.06;1815771;79;21131;-42
2022/05/10 01:01:20;;;;;;;22.10;11.08;;;;;;;8.06;47.75;100292.46;1814418;79;21640;-42
2022/05/10 01:03:55;;;;;;;27.13;12.37;;;;;;;8.01;47.91;100291.83;1816039;78;20991;-42
2022/05/10 01:06:28;;;;;;;22.05;11.55;;;;;;;7.99;47.90;100297.53;1815594;79;21011;-42
2022/05/10 01:09:26;;;;;;;24.47;12.60;;;;;;;7.95;47.91;100293.89;1813615;79;20993;-42
2022/05/10 01:12:04;;;;;;;21.77;12.15;;;;;;;7.83;47.79;100299.95;1813837;79;21523;-42
2022/05/10 01:15:00;;;;;;;23.07;12.43;;;;;;;7.74;48.03;100299.70;1814056;79;21471;-42
2022/05/10 01:17:27;;;;;;;23.75;11.65;;;;;;;7.72;48.12;100300.57;1813479;79;20981;-42
2022/05/10 01:19:54;;;;;;;23.02;11.75;;;;;;;7.68;48.40;100298.27;1813951;79;21001;-42
2022/05/10 01:22:32;;;;;;;23.77;11.00;;;;;;;7.65;48.32;100301.03;1813894;78;21037;-42
2022/05/10 01:25:48;;;;;;;20.62;11.35;;;;;;;7.64;48.51;100299.47;1758380;79;21148;-42
2022/05/10 01:28:23;;;;;;;23.35;10.65;;;;;;;7.60;48.68;100297.72;1813801;79;20886;-42
2022/05/10 01:30:50;;;;;;;20.52;11.22;;;;;;;7.53;48.86;100300.88;1814006;78;21012;-42
2022/05/10 01:33:33;;;;;;;21.15;10.65;;;;;;;7.52;49.32;100299.28;1814132;78;21025;-42
2022/05/10 01:36:21;;;;;;;24.30;10.25;;;;;;;7.51;49.26;100298.24;1813992;79;21017;-42
2022/05/10 01:39:18;;;;;;;19.52;9.90;;;;;;;7.48;49.40;100294.28;1813869;79;21222;-42
2022/05/10 01:42:09;;;;;;;20.55;9.88;;;;;;;7.46;49.52;100291.64;1813743;78;20986;-42
2022/05/10 01:44:51;;;;;;;21.77;9.90;;;;;;;7.43;49.49;100291.73;1813698;79;21001;-42
2022/05/10 01:47:37;;;;;;;22.87;9.95;;;;;;;7.43;49.28;100291.73;1813799;79;21542;-42
2022/05/10 01:50:22;;;;;;;19.87;8.78;;;;;;;7.41;49.29;100293.39;1813674;79;21126;-42
2022/05/10 01:53:09;;;;;;;17.80;8.93;;;;;;;7.39;49.39;100292.13;1813674;78;21219;-42
2022/05/10 01:55:45;;;;;;;17.90;8.73;;;;;;;7.39;49.60;100290.23;1813906;79;20972;-42
2022/05/10 01:58:25;;;;;;;19.05;8.18;;;;;;;7.38;49.52;100289.98;1813897;79;20993;-42
2022/05/10 02:01:03;;;;;;;17.98;8.25;;;;;;;7.37;49.77;100287.05;1813918;79;21819;-43
2022/05/10 02:03:44;;;;;;;22.60;8.65;;;;;;;7.35;49.91;100287.13;1813966;79;21021;-42
2022/05/10 02:06:44;;;;;;;17.50;8.88;;;;;;;7.33;49.79;100286.64;1813969;79;21143;-42
2022/05/10 02:09:28;;;;;;;22.80;10.63;;;;;;;7.31;49.23;100284.25;1808863;78;21017;-42
2022/05/10 02:12:15;;;;;;;23.38;9.90;;;;;;;7.28;49.00;100282.19;1797469;79;21538;-42
2022/05/10 02:14:53;;;;;;;22.32;10.55;;;;;;;7.25;48.70;100292.27;1797344;79;21013;-42
2022/05/10 02:17:43;;;;;;;25.57;11.80;;;;;;;7.24;49.18;100296.62;1797002;79;20974;-42
2022/05/10 02:20:22;;;;;;;24.30;11.68;;;;;;;7.21;49.39;100291.28;1797490;79;21073;-42
2022/05/10 02:23:25;;;;;;;26.85;11.57;;;;;;;7.19;49.31;100289.48;1797575;79;20926;-42
2022/05/10 02:26:08;;;;;;;28.77;15.13;;;;;;;7.18;49.33;100291.92;1797472;79;20942;-42
2022/05/10 02:28:55;;;;;;;36.83;17.82;;;;;;;7.15;49.63;100293.91;1797441;79;20970;-42
2022/05/10 02:31:26;;;;;;;39.78;19.82;;;;;;;7.11;49.96;100281.37;1797816;79;21044;-42
2022/05/10 02:33:53;;;;;;;47.78;22.60;;;;;;;7.11;49.98;100294.30;1796666;79;21340;-42
2022/05/10 02:36:20;;;;;;;58.13;28.62;;;;;;;7.11;49.91;100294.30;1741562;79;20930;-42
2022/05/10 02:38:46;;;;;;;57.55;29.37;;;;;;;7.13;50.04;100291.27;1797531;79;21089;-42
2022/05/10 02:41:17;;;;;;;74.37;35.23;;;;;;;7.11;49.95;100294.30;1766780;79;20973;-42
2022/05/10 02:43:59;;;;;;;77.50;37.23;;;;;;;7.10;50.05;100294.05;1797765;79;21060;-42
2022/05/10 02:46:26;;;;;;;91.95;43.25;;;;;;;7.12;49.94;100295.07;1797692;79;21263;-42
2022/05/10 02:48:53;;;;;;;104.40;47.17;;;;;;;7.10;49.91;100295.41;1797420;79;20981;-42
2022/05/10 02:51:20;;;;;;;105.00;52.13;;;;;;;7.09;50.04;100301.09;1797436;79;20910;-42
2022/05/10 02:53:47;;;;;;;116.73;54.83;;;;;;;7.08;49.87;100303.00;1797151;79;21011;-42
2022/05/10 02:56:19;;;;;;;134.80;60.98;;;;;;;7.09;49.89;100293.02;1797333;79;21475;-42
2022/05/10 02:59:05;;;;;;;150.95;70.85;;;;;;;7.12;49.90;100295.87;1797295;79;21123;-42
2022/05/10 03:02:02;;;;;;;150.05;74.20;;;;;;;7.13;49.89;100292.07;1797484;79;20962;-42
2022/05/10 03:04:39;;;;;;;159.12;74.15;;;;;;;7.13;49.66;100290.72;1764943;79;21049;-42
2022/05/10 03:07:05;;;;;;;156.78;75.12;;;;;;;7.17;49.68;100297.07;1797506;79;21570;-42
2022/05/10 03:09:32;;;;;;;156.00;76.82;;;;;;;7.21;49.63;100286.47;1797355;79;21027;-42
2022/05/10 03:11:59;;;;;;;163.97;80.40;;;;;;;7.26;49.76;100291.14;1803886;79;21242;-42
2022/05/10 03:14:26;;;;;;;153.42;75.62;;;;;;;7.28;49.48;100286.23;1780242;79;20973;-42
2022/05/10 03:16:53;;;;;;;149.32;73.85;;;;;;;7.33;49.27;100287.44;1804854;79;21024;-42
2022/05/10 03:19:19;;;;;;;146.18;74.15;;;;;;;7.35;49.33;100285.23;1804784;79;21492;-42
2022/05/10 03:21:46;;;;;;;138.45;68.95;;;;;;;7.40;49.39;100292.38;1804736;79;21371;-43
2022/05/10 03:24:12;;;;;;;141.28;66.62;;;;;;;7.44;49.33;100289.28;1804786;79;21564;-43
2022/05/10 03:26:39;;;;;;;138.35;64.05;;;;;;;7.47;49.24;100295.39;1804843;79;21542;-43
2022/05/10 03:29:07;;;;;;;121.30;60.95;;;;;;;7.48;48.88;100292.14;1751996;79;21037;-42
2022/05/10 03:31:34;;;;;;;115.97;56.80;;;;;;;7.49;48.83;100295.08;1804828;79;20972;-42
2022/05/10 03:36:46;;;;;;;98.20;47.33;;;;;;;7.48;48.57;100298.88;1804779;79;21244;-42
2022/05/10 03:39:14;;;;;;;91.40;43.68;;;;;;;7.48;48.70;100297.53;1804711;79;21514;-42
2022/05/10 03:41:42;;;;;;;79.25;39.80;;;;;;;7.49;48.85;100295.08;1804923;79;20961;-42
2022/05/10 03:44:09;;;;;;;73.20;37.03;;;;;;;7.51;48.66;100292.30;1804799;79;21552;-43
2022/05/10 03:46:36;;;;;;;76.85;35.78;;;;;;;7.53;48.55;100295.48;1805067;79;21265;-43
2022/05/10 03:49:03;;;;;;;77.45;37.15;;;;;;;7.56;48.62;100294.04;1805029;79;21301;-43
2022/05/10 03:51:30;;;;;;;77.27;34.95;;;;;;;7.57;48.86;100295.64;1804828;79;21021;-43
2022/05/10 03:53:58;;;;;;;76.40;35.17;;;;;;;7.62;48.82;100298.18;1804836;79;21032;-43
2022/05/10 03:56:24;;;;;;;69.82;33.33;;;;;;;7.65;48.77;100293.52;1804887;79;21637;-43
2022/05/10 03:58:52;;;;;;;69.50;34.98;;;;;;;7.72;48.56;100295.17;1804906;79;21480;-42
2022/05/10 04:01:19;;;;;;;67.65;33.65;;;;;;;7.77;48.42;100295.02;1804740;79;21130;-42
2022/05/10 04:03:46;;;;;;;84.30;38.48;;;;;;;7.81;48.22;100292.71;1805009;79;21061;-42
2022/05/10 04:06:13;;;;;;;77.95;37.40;;;;;;;7.87;48.49;100304.15;1804789;79;21013;-43
2022/05/10 04:08:40;;;;;;;66.62;34.95;;;;;;;7.91;48.80;100294.84;1804777;79;20933;-42
2022/05/10 04:11:10;;;;;;;73.50;36.93;;;;;;;7.95;49.06;100294.44;1801748;79;21314;-42
2022/05/10 04:13:39;;;;;;;76.00;38.28;;;;;;;8.01;48.92;100299.38;1797624;79;21732;-43
2022/05/10 04:16:06;;;;;;;75.92;37.17;;;;;;;8.08;48.94;100301.05;1796931;79;21384;-42
2022/05/10 04:18:33;;;;;;;78.22;38.75;;;;;;;8.14;48.85;100296.25;1797406;79;20918;-43
2022/05/10 04:21:01;;;;;;;82.25;38.73;;;;;;;8.22;48.89;100296.26;1797321;79;20985;-42
2022/05/10 04:23:28;;;;;;;83.90;40.28;;;;;;;8.31;48.94;100295.47;1797499;79;21579;-42
2022/05/10 04:25:54;;;;;;;81.20;41.30;;;;;;;8.42;49.15;100300.22;1797358;79;21183;-43
2022/05/10 04:28:21;;;;;;;80.30;42.23;;;;;;;8.51;49.17;100295.59;1795982;79;20962;-42
2022/05/10 04:30:47;;;;;;;91.78;44.55;;;;;;;8.59;48.75;100300.16;1783650;80;21499;-43
2022/05/10 04:33:15;;;;;;;83.97;42.30;;;;;;;8.68;48.35;100301.48;1783618;80;21027;-43
2022/05/10 04:35:41;;;;;;;88.42;43.68;;;;;;;8.77;48.22;100293.33;1783476;80;21016;-43
2022/05/10 04:38:08;;;;;;;81.53;40.90;;;;;;;8.84;47.64;100294.42;1783475;80;21133;-43
2022/05/10 04:43:22;;;;;;;80.80;41.40;;;;;;;9.02;46.87;100293.22;1783497;80;21032;-42
2022/05/10 04:45:51;;;;;;;80.03;40.38;;;;;;;9.09;46.53;100297.57;1783224;80;21534;-43
2022/05/10 04:48:17;;;;;;;76.70;38.00;;;;;;;9.16;46.63;100293.78;1783232;80;21013;-43
2022/05/10 04:50:44;;;;;;;70.35;35.75;;;;;;;9.26;46.41;100293.16;1783462;80;21954;-43
2022/05/10 04:53:10;;;;;;;67.00;36.13;;;;;;;9.36;45.92;100295.49;1783337;80;21086;-43
2022/05/10 04:55:37;;;;;;;67.37;33.83;;;;;;;9.45;45.96;100297.02;1783264;80;21479;-42
2022/05/10 04:58:04;;;;;;;74.62;35.78;;;;;;;9.56;45.67;100291.46;1783277;80;20995;-43
2022/05/10 05:00:33;;;;;;;71.87;33.98;;;;;;;9.68;45.48;100301.58;1732831;82;21027;-42
2022/05/10 05:02:59;;;;;;;64.35;32.65;;;;;;;9.79;45.42;100297.89;1788917;80;21227;-43
2022/05/10 05:05:26;;;;;;;58.63;31.00;;;;;;;9.89;45.33;100296.92;1788794;80;21441;-43
2022/05/10 05:07:53;;;;;;;60.67;31.27;;;;;;;10.01;45.06;100298.35;1788774;80;21038;-43
2022/05/10 05:10:19;;;;;;;56.88;30.60;;;;;;;10.11;45.08;100302.56;1788980;80;20955;-43
2022/05/10 05:12:46;;;;;;;57.40;29.37;;;;;;;10.22;44.84;100301.59;1777925;79;21028;-43
2022/05/10 05:15:12;;;;;;;52.20;27.90;;;;;;;10.33;44.69;100306.83;1766892;81;21609;-43
2022/05/10 05:17:39;;;;;;;54.55;28.07;;;;;;;10.44;44.22;100298.52;1766513;81;21490;-43
2022/05/10 05:20:08;;;;;;;53.90;28.12;;;;;;;10.55;44.10;100295.61;1766569;81;21016;-43
2022/05/10 05:22:35;;;;;;;46.63;25.52;;;;;;;10.68;44.05;100303.98;1767660;81;20988;-43
2022/05/10 05:25:03;;;;;;;46.85;24.27;;;;;;;10.80;43.86;100303.19;1766594;81;21037;-43
2022/05/10 05:27:30;;;;;;;50.05;25.02;;;;;;;10.92;43.18;100298.36;1767095;81;21097;-43
2022/05/10 05:29:57;;;;;;;48.35;26.23;;;;;;;11.07;43.02;100300.39;1766850;81;20934;-42
2022/05/10 05:32:28;;;;;;;48.42;26.73;;;;;;;11.17;42.97;100295.31;1766985;81;20957;-43
2022/05/10 05:34:57;;;;;;;52.93;25.50;;;;;;;11.30;43.43;100294.72;1766905;81;20980;-43
2022/05/10 05:37:33;;;;;;;42.08;24.02;;;;;;;11.43;42.86;100292.77;1767114;81;21080;-43
2022/05/10 05:40:10;;;;;;;46.98;23.57;;;;;;;11.54;41.83;100287.89;1766916;81;21131;-43
2022/05/10 05:42:37;;;;;;;48.00;25.08;;;;;;;11.69;41.71;100295.89;1766827;81;20977;-43
2022/05/10 05:45:07;;;;;;;45.55;23.27;;;;;;;11.80;41.08;100294.87;1766902;81;21020;-43
2022/05/10 05:47:35;;;;;;;41.58;21.05;;;;;;;11.90;40.94;100291.67;1767280;81;21511;-43
2022/05/10 05:50:07;;;;;;;31.80;18.50;;;;;;;11.99;40.80;100292.32;1767053;81;21298;-43
2022/05/10 05:52:35;;;;;;;36.08;19.20;;;;;;;12.10;39.25;100290.10;1767178;81;21075;-43
2022/05/10 05:55:03;;;;;;;43.28;22.25;;;;;;;12.22;39.40;100289.27;1744946;81;20981;-43
2022/05/10 05:57:30;;;;;;;40.92;20.55;;;;;;;12.35;39.65;100281.26;1736714;82;20968;-43
2022/05/10 06:00:00;;;;;;;31.87;15.13;;;;;;;12.47;39.09;100283.92;1736424;82;21028;-43
2022/05/10 06:02:27;;;;;;;30.85;16.45;;;;;;;12.58;37.41;100281.48;1736608;82;21540;-43
2022/05/10 06:04:55;;;;;;;31.05;16.05;;;;;;;12.67;37.40;100282.09;1736495;82;23135;-43
2022/05/10 06:07:22;;;;;;;26.68;14.38;;;;;;;12.78;37.70;100276.33;1736382;82;20961;-43
2022/05/10 06:09:49;;;;;;;27.25;13.40;;;;;;;12.91;36.10;100277.05;1736838;82;20949;-43
2022/05/10 06:12:17;;;;;;;19.75;10.08;;;;;;;12.99;35.41;100276.06;1745898;81;21039;-43
2022/05/10 06:14:44;;;;;;;22.40;12.28;;;;;;;13.09;34.67;100280.97;1752695;81;21055;-43
2022/05/10 06:17:11;;;;;;;22.45;12.23;;;;;;;13.17;33.74;100275.92;1752379;81;21220;-43
2022/05/10 06:19:39;;;;;;;22.50;10.85;;;;;;;13.24;33.31;100267.94;1752416;81;21593;-43
2022/05/10 06:22:07;;;;;;;19.30;10.90;;;;;;;13.32;32.88;100267.50;1752235;81;21032;-43
2022/05/10 06:24:35;;;;;;;18.92;10.35;;;;;;;13.40;33.39;100259.73;1752729;81;20996;-43
2022/05/10 06:27:05;;;;;;;15.13;8.48;;;;;;;13.48;32.56;100263.60;1752406;81;21052;-43
2022/05/10 06:29:33;;;;;;;18.60;9.98;;;;;;;13.56;32.41;100265.89;1752387;81;22078;-43
2022/05/10 06:31:59;;;;;;;23.50;11.22;;;;;;;13.64;32.51;100264.13;1723880;81;20963;-43
2022/05/10 06:34:26;;;;;;;20.02;10.00;;;;;;;13.71;33.46;100262.89;1747686;81;21021;-43
2022/05/10 06:36:52;;;;;;;19.15;10.28;;;;;;;13.83;33.23;100262.20;1752236;81;20960;-43
2022/05/10 06:39:19;;;;;;;20.97;10.00;;;;;;;13.94;32.18;100260.45;1752441;81;21059;-43
2022/05/10 06:41:47;;;;;;;16.52;8.38;;;;;;;14.04;31.69;100261.05;1752321;81;21104;-43
2022/05/10 06:44:14;;;;;;;15.48;8.93;;;;;;;14.13;31.42;100259.67;1752404;81;20944;-43
2022/05/10 06:46:42;;;;;;;15.60;8.75;;;;;;;14.23;30.76;100261.02;1752421;81;20980;-43
2022/05/10 06:49:09;;;;;;;16.12;7.83;;;;;;;14.30;30.64;100256.47;1752285;81;21000;-43
2022/05/10 06:51:36;;;;;;;11.80;5.53;;;;;;;14.41;30.53;100250.44;1752395;81;21047;-43
2022/05/10 06:54:04;;;;;;;15.03;6.17;;;;;;;14.47;29.61;100254.45;1699156;81;21125;-43
2022/05/10 06:56:30;;;;;;;11.78;6.72;;;;;;;14.57;29.76;100249.76;1752529;81;20953;-43
2022/05/10 06:58:58;;;;;;;13.80;7.10;;;;;;;14.64;28.70;100251.23;1752332;81;21021;-43
2022/05/10 07:01:25;;;;;;;13.28;7.40;;;;;;;14.67;28.08;100251.85;1752314;81;21599;-43
2022/05/10 07:03:52;;;;;;;12.50;7.55;;;;;;;14.70;29.26;100248.41;1752333;81;21027;-43
2022/05/10 07:06:22;;;;;;;11.97;6.65;;;;;;;14.77;29.27;100252.61;1752436;81;21284;-43
2022/05/10 07:08:51;;;;;;;12.68;7.42;;;;;;;14.84;29.93;100243.17;1752286;81;22148;-43
2022/05/10 07:11:18;;;;;;;10.50;6.62;;;;;;;14.96;29.76;100244.33;1752319;81;20964;-44
2022/05/10 07:13:48;;;;;;;11.57;7.08;;;;;;;15.09;28.08;100242.19;1752343;81;21027;-43
2022/05/10 07:16:14;;;;;;;14.03;7.28;;;;;;;15.19;28.19;100247.02;1752405;81;21498;-43
2022/05/10 07:18:41;;;;;;;13.13;7.15;;;;;;;15.27;28.05;100246.53;1752437;81;21125;-43
2022/05/10 07:21:08;;;;;;;14.83;8.03;;;;;;;15.34;28.08;100239.23;1747012;81;21087;-43
2022/05/10 07:23:34;;;;;;;11.80;5.53;;;;;;;15.42;27.58;100231.91;1752459;81;20975;-43
2022/05/10 07:26:01;;;;;;;8.05;4.30;;;;;;;15.51;26.64;100232.45;1752341;81;20956;-43
2022/05/10 07:28:30;;;;;;;11.97;6.47;;;;;;;15.61;26.55;100227.70;1752410;81;21091;-43
2022/05/10 07:30:58;;;;;;;16.97;9.75;;;;;;;15.71;26.81;100229.78;1752347;81;21139;-43
2022/05/10 07:33:25;;;;;;;22.65;12.35;;;;;;;15.81;28.09;100225.59;1752870;81;21021;-43
2022/05/10 07:38:39;;;;;;;28.20;13.55;;;;;;;15.98;27.66;100216.20;1752750;81;21028;-43
2022/05/10 07:41:06;;;;;;;18.87;10.05;;;;;;;16.07;27.22;100219.42;1752968;81;21557;-43
2022/05/10 07:43:37;;;;;;;24.75;12.90;;;;;;;16.16;26.62;100216.98;1752642;81;21118;-43
2022/05/10 07:46:05;;;;;;;30.48;17.55;;;;;;;16.22;27.13;100223.67;1752660;81;21012;-43
2022/05/10 07:48:31;;;;;;;28.95;16.00;;;;;;;16.30;27.71;100206.18;1752509;81;21514;-43
2022/05/10 07:51:00;;;;;;;31.73;17.15;;;;;;;16.39;27.92;100205.28;1752474;81;20992;-43
2022/05/10 07:53:27;;;;;;;31.33;16.20;;;;;;;16.49;27.28;100198.53;1752794;81;21110;-43
2022/05/10 07:55:54;;;;;;;41.35;21.90;;;;;;;16.61;27.96;100202.16;1752498;81;23128;-43
2022/05/10 07:58:21;;;;;;;44.60;24.43;;;;;;;16.69;26.87;100193.64;1752588;81;21443;-43
2022/05/10 08:00:47;;;;;;;46.80;24.45;;;;;;;16.73;25.86;100193.66;1752576;81;21064;-43
2022/05/10 08:03:18;;;;;;;35.20;18.95;;;;;;;16.75;26.61;100185.86;1752706;81;21553;-43
2022/05/10 08:05:45;;;;;;;20.12;10.93;;;;;;;16.77;26.63;100179.41;1752314;81;21500;-43
2022/05/10 08:08:12;;;;;;;25.35;14.33;;;;;;;16.86;27.32;100177.11;1752595;81;21089;-43
2022/05/10 08:10:42;;;;;;;24.15;12.68;;;;;;;16.99;25.08;100181.71;1752361;81;21460;-43
2022/05/10 08:13:18;;;;;;;23.65;13.60;;;;;;;16.94;25.04;100181.48;1752369;81;21421;-43
2022/05/10 08:15:45;;;;;;;23.73;12.50;;;;;;;16.86;24.97;100179.85;1752400;81;21083;-43
2022/05/10 08:18:12;;;;;;;30.10;13.38;;;;;;;16.78;26.21;100176.88;1752409;81;20984;-43
2022/05/10 08:20:40;;;;;;;21.23;11.43;;;;;;;16.89;26.89;100178.50;1752321;81;21143;-43
2022/05/10 08:23:07;;;;;;;17.75;8.35;;;;;;;17.04;26.41;100169.02;1752203;81;20996;-43
2022/05/10 08:25:34;;;;;;;14.73;8.40;;;;;;;17.10;25.50;100172.36;1761955;81;21015;-43
2022/05/10 08:28:02;;;;;;;10.85;6.53;;;;;;;17.10;25.08;100168.84;1765878;81;21032;-43
2022/05/10 08:30:30;;;;;;;12.73;6.97;;;;;;;17.08;25.34;100160.23;1765880;81;21076;-43
2022/05/10 08:32:56;;;;;;;10.13;6.45;;;;;;;17.15;26.07;100162.41;1766244;81;21138;-43
2022/05/10 08:35:23;;;;;;;11.03;6.80;;;;;;;17.28;26.17;100162.27;1765911;81;21662;-43
2022/05/10 08:37:50;;;;;;;13.15;7.12;;;;;;;17.37;24.50;100166.05;1765951;81;20934;-43
2022/05/10 08:40:29;;;;;;;11.83;6.17;;;;;;;17.39;26.33;100164.48;1765918;81;20957;-43
2022/05/10 08:42:59;;;;;;;10.28;6.47;;;;;;;17.51;26.22;100163.36;1765966;81;21701;-43
2022/05/10 08:45:26;;;;;;;13.28;5.92;;;;;;;17.67;26.16;100150.11;1765908;81;21523;-43
2022/05/10 08:47:53;;;;;;;10.00;5.92;;;;;;;17.79;24.30;100151.72;1765835;81;20882;-43
2022/05/10 08:50:21;;;;;;;10.50;5.60;;;;;;;17.84;24.16;100151.92;1765985;81;21017;-43
2022/05/10 08:52:51;;;;;;;10.58;6.15;;;;;;;17.81;23.89;100144.66;1761140;81;21504;-44
2022/05/10 08:55:25;;;;;;;10.70;6.40;;;;;;;17.72;25.09;100140.13;1766001;81;21052;-43
2022/05/10 08:58:05;;;;;;;11.38;6.35;;;;;;;17.78;24.93;100142.70;1766177;81;21780;-43
2022/05/10 09:00:44;;;;;;;14.47;6.92;;;;;;;17.81;24.21;100143.28;1766021;81;20994;-43
2022/05/10 09:03:25;;;;;;;9.25;6.12;;;;;;;17.93;25.14;100140.77;1765803;81;20937;-43
2022/05/10 09:05:53;;;;;;;10.63;5.95;;;;;;;18.07;23.68;100138.63;1765842;81;20994;-43
2022/05/10 09:08:34;;;;;;;14.10;6.80;;;;;;;18.03;23.38;100127.66;1699163;81;21080;-43
2022/05/10 09:11:07;;;;;;;10.93;6.17;;;;;;;17.98;22.83;100120.39;1765211;81;21096;-43
2022/05/10 09:13:34;;;;;;;9.08;6.12;;;;;;;17.92;23.67;100119.20;1770446;80;21007;-43
2022/05/10 09:16:10;;;;;;;10.23;6.65;;;;;;;17.95;23.92;100125.30;1772910;81;21016;-43
2022/05/10 09:18:51;;;;;;;13.83;8.08;;;;;;;17.94;23.68;100112.75;1773344;81;21013;-43
2022/05/10 09:21:49;;;;;;;13.45;8.53;;;;;;;17.89;24.75;100118.03;1772889;81;21041;-43
2022/05/10 09:25:36;;;;;;;13.95;8.50;;;;;;;17.99;24.13;100106.29;1779200;79;22659;-43
2022/05/10 09:28:26;;;;;;;16.73;9.95;;;;;;;17.99;25.15;100103.55;1739137;82;21261;-43
2022/05/10 09:36:31;;;;;;;13.88;8.80;;;;;;;18.44;24.24;100104.72;1676362;85;20980;-43
2022/05/10 09:39:20;;;;;;;15.23;9.53;;;;;;;18.59;24.61;100095.88;1676427;85;20948;-43
2022/05/10 09:41:47;;;;;;;16.15;10.85;;;;;;;18.69;24.01;100089.58;1689354;82;20994;-43
2022/05/10 09:44:27;;;;;;;17.12;10.00;;;;;;;18.85;24.35;100085.81;1720250;82;21922;-43
2022/05/10 09:47:13;;;;;;;18.67;11.30;;;;;;;19.01;23.05;100084.79;1739223;82;21038;-43
2022/05/10 09:49:41;;;;;;;19.82;11.45;;;;;;;19.13;23.14;100075.30;1739087;82;21560;-43
2022/05/10 09:52:18;;;;;;;19.52;12.55;;;;;;;19.25;23.36;100076.83;1738832;82;21556;-43
2022/05/10 09:54:45;;;;;;;20.15;13.65;;;;;;;19.44;23.65;100070.28;1739052;82;20951;-43
2022/05/10 09:57:30;;;;;;;19.95;11.68;;;;;;;19.51;23.10;100061.97;1739109;82;21249;-43
2022/05/10 09:59:56;;;;;;;19.82;12.85;;;;;;;19.56;22.92;100061.37;1738588;82;20951;-43
2022/05/10 10:02:33;;;;;;;22.67;14.07;;;;;;;19.73;22.58;100065.97;1738901;82;21018;-43
2022/05/10 10:05:19;;;;;;;23.10;14.28;;;;;;;19.87;22.41;100064.48;1738939;82;21097;-43
2022/05/10 10:07:53;;;;;;;22.65;14.68;;;;;;;19.90;21.80;100055.41;1739154;82;21037;-43
2022/05/10 10:10:37;;;;;;;20.85;13.32;;;;;;;19.97;22.69;100056.73;1739159;82;23099;-43
2022/05/10 10:13:29;;;;;;;22.93;12.55;;;;;;;20.11;21.61;100053.86;1739058;82;21087;-43
2022/05/10 10:15:56;;;;;;;24.05;13.80;;;;;;;20.26;21.64;100038.78;1739200;82;20939;-43
2022/05/10 10:18:45;;;;;;;23.77;14.00;;;;;;;20.50;21.54;100045.85;1739066;82;21509;-43
2022/05/10 10:21:20;;;;;;;28.32;15.05;;;;;;;20.61;20.83;100045.15;1739098;81;21082;-43
2022/05/10 10:23:52;;;;;;;27.82;16.12;;;;;;;20.51;20.32;100040.53;1741215;81;21151;-43
2022/05/10 10:26:45;;;;;;;27.05;16.48;;;;;;;20.38;21.02;100043.79;1755008;81;21289;-43
2022/05/10 10:29:35;;;;;;;25.12;15.53;;;;;;;20.38;20.79;100031.40;1755155;81;21461;-43
2022/05/10 10:32:08;;;;;;;20.88;14.35;;;;;;;20.37;20.97;100027.10;1755041;81;20959;-43
2022/05/10 10:34:51;;;;;;;24.43;14.63;;;;;;;20.47;20.92;100028.19;1753892;81;21085;-43
2022/05/10 10:37:35;;;;;;;25.02;15.18;;;;;;;20.63;21.03;100033.11;1754314;81;23238;-43
2022/05/10 10:40:27;;;;;;;21.85;14.20;;;;;;;20.74;20.35;100022.75;1754243;81;20971;-43
2022/05/10 10:43:23;;;;;;;26.17;14.00;;;;;;;20.86;21.49;100011.80;1686427;85;21079;-43
2022/05/10 10:45:55;;;;;;;25.97;15.08;;;;;;;20.97;20.93;100010.45;1742175;82;21013;-43
2022/05/10 10:48:45;;;;;;;31.87;17.02;;;;;;;21.10;20.14;100007.94;1748470;82;20970;-43
2022/05/10 10:51:13;;;;;;;29.12;17.23;;;;;;;21.25;19.45;100001.81;1751405;81;21980;-43
2022/05/10 10:53:40;;;;;;;25.62;15.05;;;;;;;21.32;19.99;100002.32;1751175;82;21553;-43
2022/05/10 10:56:35;;;;;;;29.72;17.20;;;;;;;21.41;19.80;100003.17;1751407;82;21371;-43
2022/05/10 10:59:29;;;;;;;25.20;13.58;;;;;;;21.43;19.22;100007.69;1751221;82;21527;-43
2022/05/10 11:02:26;;;;;;;21.68;13.03;;;;;;;21.50;20.05;99990.41;1751267;82;21022;-43
2022/05/10 11:05:13;;;;;;;24.55;13.70;;;;;;;21.62;19.51;99991.82;1751357;82;21231;-43
2022/05/10 11:08:01;;;;;;;26.65;13.88;;;;;;;21.69;19.17;99983.41;1751181;81;20973;-43
2022/05/10 11:10:54;;;;;;;27.45;15.53;;;;;;;21.86;20.50;99984.33;1751456;82;21065;-43
2022/05/10 11:14:20;;;;;;;23.90;14.60;;;;;;;22.09;19.72;99978.81;1751360;82;21018;-43
2022/05/10 11:16:58;;;;;;;26.23;14.30;;;;;;;22.18;19.50;99965.23;1751482;82;21021;-43
2022/05/10 11:20:10;;;;;;;21.17;12.65;;;;;;;22.26;18.95;99972.20;1751272;81;21993;-43
2022/05/10 11:22:42;;;;;;;27.58;14.53;;;;;;;22.13;19.24;99966.31;1751411;81;21618;-43
2022/05/10 11:25:20;;;;;;;23.40;14.50;;;;;;;21.96;19.90;99960.70;1746904;81;20931;-43
2022/05/10 11:28:15;;;;;;;22.80;13.58;;;;;;;21.91;19.89;99954.27;1743536;81;21539;-43
2022/05/10 11:31:17;;;;;;;21.05;11.75;;;;;;;21.76;19.96;99953.55;1743546;82;20995;-43
2022/05/10 11:33:55;;;;;;;20.97;13.30;;;;;;;21.73;19.89;99947.50;1743505;81;21233;-43
2022/05/10 11:36:48;;;;;;;27.27;14.83;;;;;;;21.84;20.00;99936.43;1743196;81;20899;-43
2022/05/10 11:39:44;;;;;;;32.88;18.95;;;;;;;21.98;20.44;99947.25;1743373;82;20970;-43
2022/05/10 11:42:34;;;;;;;30.48;18.45;;;;;;;22.08;20.05;99929.70;1743407;81;21524;-43
2022/05/10 11:45:24;;;;;;;29.25;17.77;;;;;;;22.28;20.11;99933.86;1742862;81;21876;-43
2022/05/10 11:48:16;;;;;;;31.52;18.62;;;;;;;22.48;20.49;99936.03;1743612;82;23585;-43
2022/05/10 11:51:41;;;;;;;27.77;15.60;;;;;;;22.57;19.49;99923.02;1743570;82;21288;-43
2022/05/10 11:54:54;;;;;;;30.88;18.00;;;;;;;22.54;19.94;99914.98;1741870;81;20955;-43
2022/05/10 11:57:21;;;;;;;24.70;13.70;;;;;;;22.54;19.34;99908.68;1743905;81;21481;-43
2022/05/10 11:59:48;;;;;;;24.70;14.00;;;;;;;22.67;19.02;99902.66;1743705;81;20987;-43
2022/05/10 12:02:36;;;;;;;24.72;12.88;;;;;;;22.84;19.07;99898.77;1743408;81;21492;-43